Terminal Aerodrome Forecast
Issued by NWS

Home | Current Version | Previous Version | Text Only | Print | Product List | Glossary On
Versions: 1 2 3 4 5 6 7 8 9 10 11 12 13 14 15 16 17 18 19 20 21 22 23 24
000
FTUS45 KREV 281700
TAFTRK
TAF
KTRK 281739Z 2818/2918 22016G28KT P6SM FEW100 SCT180
     FM282000 23020G34KT P6SM SCT100 BKN180
     FM290200 21015G24KT P6SM SCT100 BKN180
     FM290600 20011G20KT P6SM VCSH SCT040 OVC080
     FM291000 20010KT 3SM -RASN BKN020 OVC040=

USA.gov is the U.S. government's official web portal to all federal, state and local government web resources and services.